Impacts TAF Board
For situational awareness. Not to be used for flight planning purposes.
IDs:

KMTJ - Montrose Rgnl, CO, US

Issued at 1727 UTC 01 Feb 2023
Updated at 2132 UTC 01 Feb 2023
Potential Impact None Slight Moderate High
Time2053Z 01/22Z 01/23Z 02/00Z 02/01Z 02/02Z 02/03Z 02/04Z 02/05Z 02/06Z 02/07Z 02/08Z 02/09Z 02/10Z>>
Type OBS PRVL PRVL PRVL PRVL PRVL PRVL PRVL PRVL PRVL PRVL PRVL PRVL PRVL
VIS 10 >6 >6 >6 >6 >6 >6 >6 >6 >6 >6 >6 >6 >6
CIG -- -- -- -- -- -- -- -- -- -- -- -- -- --
Cover CLR SKC SKC SKC SKC SKC SKC SKC SKC SKC SKC SKC SKC SKC
FltCat VFR VFR VFR VFR VFR VFR VFR VFR VFR VFR VFR VFR VFR VFR
WX -- -- -- -- -- -- -- -- -- -- -- -- -- --
WDir VRB VRB VRB VRB VRB 140 140 140 140 140 140 140 140 140
WSpd 0 4 4 4 4 6 6 6 6 6 6 6 6 6
WGst -- -- -- -- -- -- -- -- -- -- -- -- -- --
WSHgt -- -- -- -- -- -- -- -- -- -- -- -- -- --
WSDir -- -- -- -- -- -- -- -- -- -- -- -- -- --
WSSpd -- -- -- -- -- -- -- -- -- -- -- -- -- --
R13/31
XWnd VRB VRB VRB VRB VRB -0 -0 -0 -0 -0 -0 -0 -0 -0
HWnd VRB VRB VRB VRB VRB 6 6 6 6 6 6 6 6 6
R17/35
XWnd VRB VRB VRB VRB VRB 4 4 4 4 4 4 4 4 4
HWnd VRB VRB VRB VRB VRB 5 5 5 5 5 5 5 5 5

NOTE: LAMP data beyond the time of the TAF data is denoted as LAMP in Type and colored magenta.

Raw TAF
KMTJ 011727Z 0118/0218 VRB04KT P6SM SKC
  FM020200 14006KT P6SM SKC


Raw METAR
KMTJ 012053Z AUTO 00000KT 10SM CLR M02/M12 A3022 RMK AO2 SLP273 T10171117 56028
KMTJ 011953Z AUTO 00000KT 10SM CLR M03/M12 A3023 RMK AO2 SLP283 T10331122
KMTJ 011853Z AUTO 00000KT 10SM CLR M04/M12 A3027 RMK AO2 SLP299 T10391122

METAR Board
Radar Display
Forecast Discussion

For situational awareness. Not to be used for flight planning purposes.